Point Reyes Station, California
Current Conditions -  °F | °C
As of 11:35 AM on Wednesday 17 Dec 2014 (Local Time) from KDVO Reporting Station
Few Clouds Few Clouds  
Wind Chill: 13°   Ceiling: Unl
Heat Index: 13°   Visibility: 10mi
Dew Point: 10°   Wind: 3mph
Humidity: 82%   Direction: 230°SW
Pressure: 30.05"   Gusts: NA
Location:  38.07°N, 122.81°W
Report Text: KDVO 171935Z AUTO 23003KT 10SM FEW038 13/10 A3005 RMK AO2
Loading
Personal Weather Stations






























Interactive Weather Map New forecast layout! Learn more

10-Day Weather Forecast

Advertisements
Track Severe Weather on mobile